Portland, Oregon
Traffic Map
Current Weather Conditions
Portland, Oregon
Overcast
Overcast
59°
Feels Like: 59°
Wind Chill: 59° Ceiling: 5000
Heat Index: 59° Visibility: 10mi
Dew Point: 51° Wind: 12mph
Humidity: 75% Direction: 110° (ESE)
Pressure: 29.92in Gusts: 0mph
Raw Report DataKPDX 220153Z 11010KT 10SM BKN050 OVC075 15/11 A2992 RMK AO2 SLP131 T01500106
Traffic Incident Summary
Active as of:
Severity:
Category:
InformationThere was an issue retrieving the traffic information for this location. Please try a different location or try again shortly.
Advertisements
Track Severe Weather on mobile